createdAt,value
2019-02-12T00:01:09.126Z,71.50
2019-02-12T00:03:59.601Z,70.54
2019-02-12T00:06:50.463Z,70.35
2019-02-12T00:09:40.982Z,69.76
2019-02-12T00:12:32.442Z,69.87
2019-02-12T00:15:22.693Z,70.97
2019-02-12T00:18:13.354Z,70.74
2019-02-12T00:21:08.957Z,71.92
2019-02-12T00:23:55.602Z,72.57
2019-02-12T00:26:45.948Z,73.65
2019-02-12T00:29:36.612Z,74.82
2019-02-12T00:32:26.954Z,75.37
2019-02-12T00:35:17.746Z,76.21
2019-02-12T00:38:08.361Z,77.39
2019-02-12T00:40:59.352Z,77.58
2019-02-12T00:43:49.852Z,77.04
2019-02-12T00:46:40.628Z,79.48
2019-02-12T00:49:31.235Z,79.49
2019-02-12T00:52:21.834Z,79.88
2019-02-12T00:55:12.443Z,79.43
2019-02-12T00:58:03.085Z,79.06
2019-02-12T01:00:53.426Z,77.56
2019-02-12T01:03:43.940Z,77.28
2019-02-12T01:06:34.393Z,77.11
2019-02-12T01:09:25.338Z,77.83
2019-02-12T01:12:16.028Z,78.85
2019-02-12T01:15:08.388Z,79.33
2019-02-12T01:17:59.145Z,80.83
2019-02-12T01:20:49.671Z,79.25
2019-02-12T01:23:40.162Z,79.97
2019-02-12T01:26:30.553Z,78.31
2019-02-12T01:29:20.930Z,78.25
2019-02-12T01:32:11.779Z,78.15
2019-02-12T01:35:02.328Z,77.44
2019-02-12T01:37:53.038Z,76.42
2019-02-12T01:40:46.486Z,74.77
2019-02-12T01:43:36.779Z,72.08
2019-02-12T01:46:27.345Z,72.57
2019-02-12T01:49:18.077Z,72.09
2019-02-12T01:52:08.717Z,74.49
2019-02-12T01:54:59.310Z,76.97
2019-02-12T01:57:49.886Z,76.83
2019-02-12T02:00:40.690Z,74.85
2019-02-12T02:03:31.196Z,72.53
2019-02-12T02:06:21.910Z,72.30
2019-02-12T02:09:12.496Z,71.07
2019-02-12T02:12:02.866Z,71.39
2019-02-12T02:14:53.431Z,71.57
2019-02-12T02:17:43.848Z,71.63
2019-02-12T02:20:34.422Z,72.01
2019-02-12T02:23:24.789Z,73.84
2019-02-12T02:26:15.135Z,75.82
2019-02-12T02:29:05.759Z,77.34
2019-02-12T02:31:56.206Z,78.34
2019-02-12T02:34:47.138Z,78.55
2019-02-12T02:37:37.646Z,78.90
2019-02-12T02:40:28.228Z,79.37
2019-02-12T02:43:18.611Z,79.60
2019-02-12T02:46:09.314Z,78.44
2019-02-12T02:48:59.696Z,78.09
2019-02-12T02:51:53.878Z,74.87
2019-02-12T02:54:42.276Z,74.14
2019-02-12T02:57:33.390Z,72.23
2019-02-12T03:00:23.681Z,73.19
2019-02-12T03:03:14.386Z,73.48
2019-02-12T03:06:05.376Z,73.75
2019-02-12T03:08:56.834Z,71.78
2019-02-12T03:11:47.446Z,72.48
2019-02-12T03:14:39.395Z,72.12
2019-02-12T03:17:30.239Z,71.50
2019-02-12T03:20:21.180Z,71.52
2019-02-12T03:23:11.823Z,70.91
2019-02-12T03:26:02.536Z,70.27
2019-02-12T03:28:53.995Z,70.13
2019-02-12T03:31:44.770Z,68.64
2019-02-12T03:34:35.358Z,67.65
2019-02-12T03:37:26.381Z,68.13
2019-02-12T03:40:16.943Z,65.73
2019-02-12T03:43:07.626Z,65.54
2019-02-12T03:45:57.946Z,64.66
2019-02-12T03:48:48.568Z,63.51
2019-02-12T03:51:38.889Z,64.54
2019-02-12T03:54:29.541Z,65.24
2019-02-12T03:57:20.282Z,64.47
2019-02-12T04:00:13.480Z,63.27
2019-02-12T04:03:05.744Z,62.67
2019-02-12T04:05:56.480Z,62.44
2019-02-12T04:08:47.289Z,62.17
2019-02-12T04:11:38.119Z,63.20
2019-02-12T04:14:28.605Z,63.28
2019-02-12T04:17:19.291Z,64.78
2019-02-12T04:20:09.512Z,66.02
2019-02-12T04:23:00.466Z,66.15
2019-02-12T04:25:51.203Z,66.23
2019-02-12T04:28:41.883Z,65.24
2019-02-12T04:31:32.401Z,65.60
2019-02-12T04:34:23.190Z,65.94
2019-02-12T04:37:13.801Z,65.97
2019-02-12T04:40:04.506Z,66.84
2019-02-12T04:42:54.995Z,67.41
2019-02-12T04:45:45.805Z,67.99
2019-02-12T04:48:36.383Z,68.20
2019-02-12T04:51:26.730Z,70.05
2019-02-12T04:54:17.076Z,72.82
2019-02-12T04:57:07.960Z,75.02
2019-02-12T04:59:58.469Z,77.26
2019-02-12T05:02:48.842Z,78.33
2019-02-12T05:05:40.551Z,80.39
2019-02-12T05:09:01.137Z,80.78
2019-02-12T05:12:02.708Z,82.37
2019-02-12T05:14:53.445Z,83.96
2019-02-12T05:17:44.046Z,86.52
2019-02-12T05:20:34.575Z,90.69
2019-02-12T05:23:26.309Z,92.58
2019-02-12T05:26:16.924Z,93.12
2019-02-12T05:29:07.171Z,93.01
2019-02-12T05:31:57.818Z,90.36
2019-02-12T05:34:48.428Z,90.48
2019-02-12T05:37:39.011Z,89.96
2019-02-12T05:40:29.548Z,88.04
2019-02-12T05:43:20.350Z,89.19
2019-02-12T05:46:10.918Z,88.04
2019-02-12T05:49:01.851Z,89.80
2019-02-12T05:51:52.306Z,93.39
2019-02-12T05:54:42.822Z,92.58
2019-02-12T05:57:33.364Z,91.19
2019-02-12T06:00:26.298Z,91.38
2019-02-12T06:03:19.358Z,90.55
2019-02-12T06:06:09.813Z,90.02
2019-02-12T06:09:00.308Z,87.43
2019-02-12T06:11:50.741Z,85.01
2019-02-12T06:14:41.343Z,84.01
2019-02-12T06:17:32.454Z,80.85
2019-02-12T06:20:23.202Z,79.20
2019-02-12T06:23:13.906Z,78.13
2019-02-12T06:26:04.654Z,75.84
2019-02-12T06:28:55.344Z,74.90
2019-02-12T06:31:45.683Z,71.77
2019-02-12T06:34:36.649Z,71.19
2019-02-12T06:37:27.461Z,71.25
2019-02-12T06:40:18.168Z,70.07
2019-02-12T06:43:08.471Z,68.72
2019-02-12T06:45:59.157Z,66.34
2019-02-12T06:48:49.857Z,66.86
2019-02-12T06:51:40.864Z,66.20
2019-02-12T06:54:31.553Z,65.60
2019-02-12T06:57:22.937Z,65.05
2019-02-12T07:00:13.416Z,64.91
2019-02-12T07:03:15.220Z,64.99
2019-02-12T07:06:37.816Z,62.93
2019-02-12T07:09:51.846Z,62.17
2019-02-12T07:13:26.341Z,61.40
2019-02-12T07:16:50.663Z,59.33
2019-02-12T07:20:04.680Z,58.44
2019-02-12T07:23:08.333Z,56.27
2019-02-12T07:26:43.382Z,56.75
2019-02-12T07:30:07.483Z,57.50
2019-02-12T07:33:50.815Z,57.61
2019-02-12T07:37:37.791Z,57.57
2019-02-12T07:40:53.093Z,56.74
2019-02-12T07:44:26.490Z,55.50
2019-02-12T07:47:58.724Z,52.76
2019-02-12T07:51:20.964Z,50.03
2019-02-12T07:54:51.427Z,47.62
2019-02-12T07:58:22.443Z,48.07
2019-02-12T08:01:22.260Z,47.22
2019-02-12T08:04:49.943Z,45.52
2019-02-12T08:08:24.924Z,44.16
2019-02-12T08:12:05.610Z,43.02
2019-02-12T08:15:55.592Z,42.01
2019-02-12T08:19:14.012Z,42.48
2019-02-12T08:22:46.877Z,41.31
2019-02-12T08:26:09.081Z,39.13
2019-02-12T08:29:41.196Z,38.19
2019-02-12T08:32:57.322Z,35.89
2019-02-12T08:36:12.769Z,35.00
2019-02-12T08:39:43.590Z,34.60
2019-02-12T08:42:58.735Z,34.41
2019-02-12T08:46:11.362Z,37.28
2019-02-12T08:49:31.269Z,38.33
2019-02-12T08:53:15.153Z,36.67
2019-02-12T08:56:33.095Z,37.05
2019-02-12T08:59:40.219Z,36.30
2019-02-12T09:02:55.836Z,36.43
2019-02-12T09:06:15.688Z,36.69
2019-02-12T09:09:43.644Z,37.82
2019-02-12T09:12:59.860Z,38.72
2019-02-12T09:16:25.313Z,37.47
2019-02-12T09:19:31.052Z,39.25
2019-02-12T09:23:04.715Z,39.14
2019-02-12T09:26:17.834Z,39.60
2019-02-12T09:29:30.991Z,40.60
2019-02-12T09:33:14.293Z,41.61
2019-02-12T09:36:55.069Z,42.61
2019-02-12T09:40:19.476Z,43.80
2019-02-12T09:43:46.464Z,42.97
2019-02-12T09:47:18.367Z,42.89
2019-02-12T09:50:45.152Z,44.28
2019-02-12T09:54:27.575Z,43.42
2019-02-12T09:57:55.928Z,43.81
2019-02-12T10:01:14.981Z,44.11
2019-02-12T10:04:46.015Z,44.03
2019-02-12T10:08:15.013Z,44.11
2019-02-12T10:11:46.661Z,44.54
2019-02-12T10:15:39.194Z,44.20
2019-02-12T10:18:38.620Z,42.52
2019-02-12T10:21:41.804Z,42.51
2019-02-12T10:24:59.651Z,43.32
2019-02-12T10:28:29.584Z,43.22
2019-02-12T10:31:42.423Z,43.49
2019-02-12T10:34:33.201Z,44.14
2019-02-12T10:37:23.621Z,45.75
2019-02-12T10:40:14.132Z,45.93
2019-02-12T10:43:04.743Z,46.70
2019-02-12T10:45:55.238Z,46.15
2019-02-12T10:48:45.981Z,45.87
2019-02-12T10:51:37.228Z,45.69
2019-02-12T10:54:28.403Z,45.72
2019-02-12T10:57:19.120Z,45.58
2019-02-12T11:00:12.198Z,46.37
2019-02-12T11:03:03.043Z,46.85
2019-02-12T11:05:53.526Z,45.99
2019-02-12T11:08:44.212Z,45.15
2019-02-12T11:11:34.638Z,45.35
2019-02-12T11:14:24.960Z,46.01
2019-02-12T11:17:15.568Z,45.67
2019-02-12T11:20:06.679Z,44.80
2019-02-12T11:22:58.260Z,45.25
2019-02-12T11:25:49.992Z,43.76
2019-02-12T11:28:40.523Z,44.43
2019-02-12T11:31:31.339Z,44.61
2019-02-12T11:34:21.888Z,44.39
2019-02-12T11:37:12.348Z,44.85
2019-02-12T11:40:03.050Z,44.23
2019-02-12T11:42:53.842Z,44.69
2019-02-12T11:45:44.407Z,45.22
2019-02-12T11:48:35.083Z,44.74
2019-02-12T11:51:25.707Z,45.50
2019-02-12T11:54:16.042Z,45.01
2019-02-12T11:57:06.593Z,44.72
2019-02-12T11:59:58.228Z,45.45
2019-02-12T12:02:48.888Z,44.68
2019-02-12T12:05:39.660Z,44.48
2019-02-12T12:08:31.256Z,44.26
2019-02-12T12:11:22.020Z,44.24
2019-02-12T12:14:12.564Z,44.10
2019-02-12T12:17:03.451Z,43.03
2019-02-12T12:19:54.233Z,42.78
2019-02-12T12:22:44.977Z,43.06
2019-02-12T12:25:35.676Z,42.81
2019-02-12T12:28:26.277Z,43.12
2019-02-12T12:31:16.887Z,41.99
2019-02-12T12:34:07.519Z,42.51
2019-02-12T12:36:58.287Z,42.75
2019-02-12T12:39:49.507Z,42.27
2019-02-12T12:42:39.808Z,42.80
2019-02-12T12:45:30.266Z,42.54
2019-02-12T12:48:20.886Z,42.26
2019-02-12T12:51:11.718Z,42.47
2019-02-12T12:54:02.408Z,41.81
2019-02-12T12:56:52.980Z,41.85
2019-02-12T13:00:02.879Z,41.85
2019-02-12T13:02:53.643Z,40.94
2019-02-12T13:05:43.990Z,40.69
2019-02-12T13:08:34.447Z,40.45
2019-02-12T13:11:26.672Z,40.57
2019-02-12T13:14:17.252Z,40.81
2019-02-12T13:17:07.775Z,41.95
2019-02-12T13:19:59.047Z,40.03
2019-02-12T13:22:49.728Z,40.62
2019-02-12T13:25:40.488Z,41.78
2019-02-12T13:28:30.883Z,40.63
2019-02-12T13:31:21.646Z,40.64
2019-02-12T13:34:11.962Z,40.27
2019-02-12T13:37:03.808Z,40.21
2019-02-12T13:39:54.130Z,41.31
2019-02-12T13:42:44.679Z,41.05
2019-02-12T13:45:34.958Z,40.52
2019-02-12T13:48:25.693Z,40.65
2019-02-12T13:51:16.391Z,42.20
2019-02-12T13:54:09.300Z,43.34
2019-02-12T13:56:59.659Z,40.42
2019-02-12T13:59:50.646Z,40.72
2019-02-12T14:02:41.387Z,39.37
2019-02-12T14:05:32.181Z,39.86
2019-02-12T14:08:22.652Z,40.70
2019-02-12T14:11:13.552Z,41.19
2019-02-12T14:14:04.012Z,40.43
2019-02-12T14:16:54.604Z,40.70
2019-02-12T14:19:45.217Z,42.06
2019-02-12T14:22:35.903Z,41.17
2019-02-12T14:25:27.198Z,41.67
2019-02-12T14:28:17.817Z,42.79
2019-02-12T14:31:08.324Z,41.40
2019-02-12T14:33:59.029Z,41.88
2019-02-12T14:36:49.628Z,42.34
2019-02-12T14:39:40.467Z,42.32
2019-02-12T14:42:30.990Z,42.45
2019-02-12T14:45:21.830Z,42.09
2019-02-12T14:48:12.200Z,42.68
2019-02-12T14:51:03.170Z,42.95
2019-02-12T14:53:53.567Z,44.62
2019-02-12T14:56:44.239Z,43.03
2019-02-12T14:59:34.646Z,43.72
2019-02-12T15:02:25.068Z,42.07
2019-02-12T15:05:15.512Z,43.10
2019-02-12T15:08:05.939Z,42.38
2019-02-12T17:56:13.193Z,41.66
2019-02-12T17:59:03.783Z,41.15
2019-02-12T18:01:54.491Z,40.38
2019-02-12T18:04:45.596Z,40.22
2019-02-12T18:07:36.021Z,42.76
2019-02-12T18:10:26.028Z,41.48
2019-02-12T18:13:16.240Z,41.18
2019-02-12T18:16:06.483Z,41.79
2019-02-12T18:18:56.833Z,42.50
2019-02-12T18:21:47.124Z,40.87
2019-02-12T18:24:37.521Z,42.86
2019-02-12T18:27:27.547Z,42.14
2019-02-12T18:30:18.067Z,42.56
2019-02-12T18:33:08.455Z,41.49
2019-02-12T18:35:58.729Z,42.00
2019-02-12T18:38:48.695Z,42.62
2019-02-12T18:41:39.015Z,43.13
2019-02-12T18:44:29.234Z,43.04
2019-02-12T18:47:19.247Z,42.48
2019-02-12T18:50:09.978Z,41.83
2019-02-12T18:53:00.392Z,43.62
2019-02-12T18:55:50.373Z,43.38
2019-02-12T18:58:41.373Z,42.59
2019-02-12T19:01:31.524Z,42.49
2019-02-12T19:04:21.842Z,42.26
2019-02-12T19:07:11.864Z,44.15
2019-02-12T19:10:02.290Z,42.95
2019-02-12T19:12:52.490Z,44.35
2019-02-12T19:15:42.694Z,44.36
2019-02-12T19:18:32.858Z,45.20
2019-02-12T19:21:22.978Z,45.35
2019-02-12T19:24:13.321Z,45.16
2019-02-12T19:27:03.587Z,45.01
2019-02-12T19:29:53.879Z,44.03
2019-02-12T19:32:44.303Z,43.57
2019-02-12T19:35:34.468Z,43.17
2019-02-12T19:38:24.454Z,44.19
2019-02-12T19:41:14.514Z,43.73
2019-02-12T19:44:05.278Z,43.98
2019-02-12T19:46:55.585Z,44.05
2019-02-12T19:49:45.920Z,41.68
2019-02-12T19:52:36.265Z,42.62
2019-02-12T19:55:26.817Z,43.78
2019-02-12T19:58:17.205Z,41.90
2019-02-12T20:01:07.562Z,40.85
2019-02-12T20:03:57.598Z,40.39
2019-02-12T20:06:47.932Z,40.11
2019-02-12T20:09:38.199Z,40.65
2019-02-12T20:12:28.410Z,40.20
2019-02-12T20:15:18.647Z,40.23
2019-02-12T20:18:08.777Z,39.61
2019-02-12T20:20:59.191Z,39.77
2019-02-12T20:23:49.564Z,39.96
2019-02-12T20:26:39.904Z,39.79
2019-02-12T20:29:29.954Z,39.65
2019-02-12T20:32:20.197Z,40.38
2019-02-12T20:35:11.533Z,40.65
2019-02-12T20:38:01.719Z,40.66
2019-02-12T20:40:53.324Z,40.44
2019-02-12T20:43:43.290Z,40.74
2019-02-12T20:46:33.256Z,41.01
2019-02-12T20:49:23.206Z,41.41
2019-02-12T20:52:13.631Z,41.49
2019-02-12T20:55:04.048Z,41.49
2019-02-12T20:57:54.033Z,42.05
2019-02-12T21:00:44.338Z,41.96
2019-02-12T21:03:35.117Z,42.36
2019-02-12T21:06:25.138Z,42.50
2019-02-12T21:09:18.146Z,42.84
2019-02-12T21:12:08.336Z,43.31
2019-02-12T21:15:00.383Z,43.99
2019-02-12T21:17:51.701Z,43.90
2019-02-12T21:20:42.163Z,43.60
2019-02-12T21:23:32.459Z,44.05
2019-02-12T21:26:22.729Z,44.00
2019-02-12T21:29:13.061Z,44.17
2019-02-12T21:32:06.428Z,44.12
2019-02-12T21:34:56.486Z,44.18
2019-02-12T21:37:46.925Z,44.27
2019-02-12T21:40:37.123Z,44.01
2019-02-12T21:43:27.590Z,43.94
2019-02-12T21:46:18.643Z,44.28
2019-02-12T21:49:08.820Z,44.20
2019-02-12T21:51:59.048Z,44.55
2019-02-12T21:54:49.659Z,44.94
2019-02-12T21:57:39.677Z,44.34
2019-02-12T22:00:29.836Z,44.38
2019-02-12T22:03:21.399Z,44.17
2019-02-12T22:06:11.749Z,43.94
2019-02-12T22:09:02.224Z,44.20
2019-02-12T22:11:53.655Z,43.82
2019-02-12T22:14:43.992Z,43.87
2019-02-12T22:17:34.476Z,43.82
2019-02-12T22:20:24.667Z,43.73
2019-02-12T22:23:14.989Z,43.55
2019-02-12T22:26:05.225Z,43.49
2019-02-12T22:28:55.479Z,43.70
2019-02-12T22:31:45.737Z,44.37
2019-02-12T22:34:36.050Z,43.83
2019-02-12T22:37:26.438Z,44.93
2019-02-12T22:40:16.711Z,44.82
2019-02-12T22:43:07.113Z,45.28
2019-02-12T22:45:57.476Z,45.18
2019-02-12T22:48:47.667Z,44.91
2019-02-12T22:51:38.035Z,44.98
2019-02-12T22:54:28.196Z,44.82
2019-02-12T22:57:18.776Z,44.93
2019-02-12T23:00:31.620Z,45.40
2019-02-12T23:03:24.623Z,45.74
2019-02-12T23:06:15.024Z,45.98
2019-02-12T23:09:11.028Z,45.95
2019-02-12T23:12:01.648Z,46.43
2019-02-12T23:14:52.419Z,46.70
2019-02-12T23:17:42.837Z,46.18
2019-02-12T23:20:33.347Z,46.13
2019-02-12T23:23:23.863Z,46.55
2019-02-12T23:26:14.260Z,46.85
2019-02-12T23:29:04.740Z,47.15
2019-02-12T23:31:54.891Z,47.32
2019-02-12T23:34:45.379Z,47.73
2019-02-12T23:37:35.742Z,48.25
2019-02-12T23:40:26.332Z,48.62
2019-02-12T23:43:17.892Z,47.54
2019-02-12T23:46:08.492Z,45.87
2019-02-12T23:48:58.941Z,45.88
2019-02-12T23:51:49.451Z,45.22
2019-02-12T23:54:39.906Z,45.93
2019-02-12T23:57:30.219Z,46.85
